createdAt,value
2018-07-15T00:02:23.336Z,78.80
2018-07-15T00:04:51.451Z,79.70
2018-07-15T00:07:19.555Z,79.00
2018-07-15T00:09:47.665Z,79.00
2018-07-15T00:12:15.781Z,79.40
2018-07-15T00:14:43.991Z,79.40
2018-07-15T00:17:12.067Z,79.20
2018-07-15T00:19:40.228Z,78.90
2018-07-15T00:22:08.596Z,78.80
2018-07-15T00:24:36.751Z,78.40
2018-07-15T00:27:05.152Z,78.40
2018-07-15T00:29:33.595Z,78.30
2018-07-15T00:32:01.639Z,78.50
2018-07-15T00:34:29.739Z,78.90
2018-07-15T00:36:57.875Z,79.00
2018-07-15T00:39:25.991Z,79.20
2018-07-15T00:41:54.078Z,79.00
2018-07-15T00:44:22.167Z,79.10
2018-07-15T00:46:50.239Z,79.00
2018-07-15T00:49:18.349Z,78.90
2018-07-15T00:51:46.427Z,79.40
2018-07-15T00:54:14.498Z,78.70
2018-07-15T00:56:42.583Z,78.70
2018-07-15T00:59:10.695Z,78.80
2018-07-15T01:01:38.818Z,79.20
2018-07-15T01:04:07.150Z,79.50
2018-07-15T01:06:35.276Z,80.20
2018-07-15T01:11:32.300Z,80.10
2018-07-15T01:14:00.381Z,80.20
2018-07-15T01:16:28.552Z,80.00
2018-07-15T01:18:56.647Z,80.00
2018-07-15T01:21:24.731Z,80.50
2018-07-15T01:23:52.796Z,80.60
2018-07-15T01:26:20.917Z,81.10
2018-07-15T01:28:49.007Z,81.20
2018-07-15T01:31:17.159Z,81.50
2018-07-15T01:33:45.725Z,82.20
2018-07-15T01:36:13.855Z,82.30
2018-07-15T01:38:41.987Z,82.20
2018-07-15T01:41:10.109Z,82.40
2018-07-15T01:43:38.423Z,82.50
2018-07-15T01:46:06.988Z,82.30
2018-07-15T01:48:35.100Z,82.60
2018-07-15T01:51:03.187Z,83.00
2018-07-15T01:53:31.303Z,83.10
2018-07-15T01:55:59.376Z,84.40
2018-07-15T01:58:27.447Z,83.80
2018-07-15T02:00:55.560Z,83.70
2018-07-15T02:03:23.635Z,84.20
2018-07-15T02:05:51.704Z,84.30
2018-07-15T02:08:19.814Z,84.50
2018-07-15T02:10:47.942Z,84.80
2018-07-15T02:15:43.987Z,85.30
2018-07-15T02:20:41.025Z,84.90
2018-07-15T02:23:09.125Z,85.40
2018-07-15T02:25:37.318Z,85.60
2018-07-15T02:28:05.461Z,86.30
2018-07-15T02:30:33.562Z,85.50
2018-07-15T02:33:01.674Z,85.50
2018-07-15T02:35:29.758Z,85.50
2018-07-15T02:37:57.856Z,85.80
2018-07-15T02:40:25.978Z,85.70
2018-07-15T02:42:54.120Z,85.50
2018-07-15T02:45:22.216Z,85.50
2018-07-15T02:47:50.325Z,86.20
2018-07-15T02:50:18.397Z,85.80
2018-07-15T02:52:46.514Z,86.00
2018-07-15T02:55:14.651Z,86.10
2018-07-15T02:57:42.763Z,86.50
2018-07-15T03:00:10.879Z,86.60
2018-07-15T03:02:38.955Z,87.00
2018-07-15T03:05:07.068Z,87.00
2018-07-15T03:07:35.179Z,86.80
2018-07-15T03:10:03.324Z,86.80
2018-07-15T03:12:31.421Z,87.20
2018-07-15T03:14:59.482Z,87.30
2018-07-15T03:17:27.600Z,87.30
2018-07-15T03:19:55.716Z,87.20
2018-07-15T03:22:23.842Z,87.00
2018-07-15T03:24:51.983Z,86.70
2018-07-15T03:27:20.054Z,87.10
2018-07-15T03:29:48.187Z,87.70
2018-07-15T03:32:16.326Z,87.60
2018-07-15T03:34:44.432Z,87.80
2018-07-15T03:37:12.542Z,88.20
2018-07-15T03:39:40.650Z,88.40
2018-07-15T03:42:08.750Z,87.60
2018-07-15T03:44:36.836Z,88.40
2018-07-15T03:47:04.955Z,88.20
2018-07-15T03:52:00.919Z,87.60
2018-07-15T03:54:29.016Z,87.20
2018-07-15T03:56:57.119Z,86.10
2018-07-15T03:59:25.196Z,85.70
2018-07-15T04:01:53.262Z,85.10
2018-07-15T04:04:21.391Z,84.70
2018-07-15T04:06:49.479Z,84.40
2018-07-15T04:09:17.917Z,84.60
2018-07-15T04:11:46.014Z,84.40
2018-07-15T04:14:14.188Z,84.60
2018-07-15T04:16:42.327Z,84.30
2018-07-15T04:21:38.510Z,85.00
2018-07-15T04:24:06.626Z,85.20
2018-07-15T04:26:34.764Z,85.10
2018-07-15T04:29:02.858Z,84.80
2018-07-15T04:31:30.978Z,85.10
2018-07-15T04:33:59.104Z,84.70
2018-07-15T04:36:27.250Z,84.30
2018-07-15T04:38:55.335Z,84.40
2018-07-15T04:41:23.421Z,84.20
2018-07-15T04:43:51.529Z,83.60
2018-07-15T04:46:19.606Z,82.20
2018-07-15T04:48:47.747Z,81.80
2018-07-15T04:51:15.852Z,80.90
2018-07-15T04:53:44.211Z,78.60
2018-07-15T04:56:12.308Z,78.60
2018-07-15T04:58:40.415Z,78.60
2018-07-15T05:01:08.514Z,77.80
2018-07-15T05:03:36.683Z,77.80
2018-07-15T05:06:04.918Z,77.70
2018-07-15T05:08:33.049Z,77.70
2018-07-15T05:11:01.124Z,77.50
2018-07-15T05:13:29.258Z,77.70
2018-07-15T05:15:57.392Z,77.40
2018-07-15T05:18:25.642Z,77.20
2018-07-15T05:20:53.679Z,76.50
2018-07-15T05:23:21.764Z,75.60
2018-07-15T05:25:49.899Z,75.40
2018-07-15T05:28:18.124Z,74.40
2018-07-15T05:30:46.316Z,73.10
2018-07-15T05:33:14.424Z,72.20
2018-07-15T05:35:42.533Z,71.30
2018-07-15T05:38:10.659Z,70.50
2018-07-15T05:40:38.747Z,70.80
2018-07-15T05:43:06.839Z,70.90
2018-07-15T05:45:34.916Z,70.60
2018-07-15T05:48:03.104Z,69.40
2018-07-15T05:50:31.229Z,68.70
2018-07-15T05:52:59.370Z,68.10
2018-07-15T05:55:27.478Z,66.80
2018-07-15T05:57:55.668Z,66.60
2018-07-15T06:00:23.687Z,65.70
2018-07-15T06:02:51.878Z,63.80
2018-07-15T06:05:19.976Z,62.40
2018-07-15T06:07:48.067Z,61.10
2018-07-15T06:10:16.210Z,59.80
2018-07-15T06:12:44.373Z,60.00
2018-07-15T06:15:12.569Z,60.60
2018-07-15T06:17:40.695Z,60.30
2018-07-15T06:20:08.843Z,60.90
2018-07-15T06:22:37.113Z,61.70
2018-07-15T06:25:05.556Z,60.30
2018-07-15T06:27:33.682Z,59.60
2018-07-15T06:30:01.815Z,59.20
2018-07-15T06:32:29.944Z,59.80
2018-07-15T06:34:58.167Z,60.00
2018-07-15T06:37:27.343Z,60.80
2018-07-15T06:39:55.478Z,60.30
2018-07-15T06:44:51.513Z,62.10
2018-07-15T06:47:19.580Z,61.60
2018-07-15T06:49:47.723Z,62.90
2018-07-15T06:52:15.896Z,62.90
2018-07-15T06:54:44.031Z,61.40
2018-07-15T06:57:12.170Z,61.70
2018-07-15T06:59:40.319Z,60.20
2018-07-15T07:02:08.441Z,60.20
2018-07-15T07:04:36.619Z,59.20
2018-07-15T07:07:05.001Z,58.20
2018-07-15T07:09:33.105Z,57.90
2018-07-15T07:12:01.227Z,57.70
2018-07-15T07:14:29.375Z,56.90
2018-07-15T07:16:57.455Z,58.30
2018-07-15T07:19:25.624Z,59.30
2018-07-15T07:21:54.123Z,58.40
2018-07-15T07:24:22.679Z,58.20
2018-07-15T07:26:50.831Z,58.20
2018-07-15T07:29:18.994Z,57.80
2018-07-15T07:34:14.974Z,55.40
2018-07-15T07:36:43.379Z,55.50
2018-07-15T07:39:11.519Z,54.80
2018-07-15T07:41:40.455Z,53.30
2018-07-15T07:44:08.566Z,52.20
2018-07-15T07:46:36.735Z,49.90
2018-07-15T07:49:05.032Z,49.90
2018-07-15T07:51:33.094Z,49.30
2018-07-15T07:54:01.316Z,46.80
2018-07-15T07:56:29.452Z,45.70
2018-07-15T07:58:57.568Z,44.30
2018-07-15T08:01:25.695Z,43.60
2018-07-15T08:03:53.837Z,43.90
2018-07-15T08:06:22.146Z,43.70
2018-07-15T08:08:50.288Z,41.30
2018-07-15T08:11:18.457Z,41.10
2018-07-15T08:13:46.607Z,41.10
2018-07-15T08:16:14.938Z,42.50
2018-07-15T08:18:43.050Z,43.40
2018-07-15T08:21:11.236Z,42.90
2018-07-15T08:23:39.467Z,44.20
2018-07-15T08:26:07.753Z,45.40
2018-07-15T08:28:36.031Z,47.30
2018-07-15T08:31:12.616Z,47.30
2018-07-15T08:33:40.799Z,48.00
2018-07-15T08:36:09.633Z,49.60
2018-07-15T08:38:37.870Z,50.40
2018-07-15T08:41:06.028Z,49.90
2018-07-15T08:43:34.188Z,49.40
2018-07-15T08:46:02.345Z,49.50
2018-07-15T08:48:30.478Z,48.90
2018-07-15T08:50:58.621Z,48.80
2018-07-15T08:53:26.755Z,48.40
2018-07-15T08:55:54.922Z,48.30
2018-07-15T08:58:23.013Z,48.80
2018-07-15T09:00:51.170Z,48.50
2018-07-15T09:03:19.403Z,48.30
2018-07-15T09:05:47.524Z,48.40
2018-07-15T09:08:15.691Z,47.30
2018-07-15T09:10:43.846Z,47.90
2018-07-15T09:13:12.006Z,46.90
2018-07-15T09:15:40.183Z,47.60
2018-07-15T09:18:08.283Z,47.60
2018-07-15T09:20:36.404Z,47.20
2018-07-15T09:23:04.658Z,47.40
2018-07-15T09:25:32.784Z,47.80
2018-07-15T09:28:00.891Z,47.20
2018-07-15T09:30:28.930Z,47.60
2018-07-15T09:32:56.986Z,46.90
2018-07-15T09:35:25.167Z,46.60
2018-07-15T09:37:53.470Z,47.00
2018-07-15T09:40:21.564Z,46.70
2018-07-15T09:42:49.626Z,46.30
2018-07-15T09:45:17.994Z,45.80
2018-07-15T09:47:46.118Z,46.10
2018-07-15T09:50:14.302Z,45.10
2018-07-15T09:52:42.413Z,45.80
2018-07-15T09:55:10.669Z,45.10
2018-07-15T09:57:38.964Z,45.50
2018-07-15T10:00:07.946Z,46.30
2018-07-15T10:02:36.071Z,46.60
2018-07-15T10:05:04.931Z,46.20
2018-07-15T10:07:33.027Z,45.70
2018-07-15T10:10:01.571Z,44.80
2018-07-15T10:12:29.724Z,44.80
2018-07-15T10:14:57.851Z,45.00
2018-07-15T10:17:25.999Z,44.80
2018-07-15T10:19:54.071Z,45.20
2018-07-15T10:24:50.080Z,46.60
2018-07-15T10:27:18.181Z,45.50
2018-07-15T10:29:46.332Z,44.50
2018-07-15T10:32:14.493Z,45.50
2018-07-15T10:34:42.657Z,44.70
2018-07-15T10:37:10.836Z,44.70
2018-07-15T10:42:07.209Z,44.90
2018-07-15T10:44:35.344Z,44.30
2018-07-15T10:47:03.381Z,44.50
2018-07-15T10:49:31.525Z,44.00
2018-07-15T10:51:59.614Z,43.70
2018-07-15T10:54:27.734Z,43.50
2018-07-15T10:56:55.864Z,43.80
2018-07-15T10:59:23.973Z,43.20
2018-07-15T11:01:52.112Z,44.20
2018-07-15T11:04:20.294Z,42.60
2018-07-15T11:06:48.447Z,43.60
2018-07-15T11:09:16.788Z,43.80
2018-07-15T11:11:44.893Z,44.10
2018-07-15T11:14:12.990Z,43.60
2018-07-15T11:16:41.140Z,42.90
2018-07-15T11:19:09.192Z,42.90
2018-07-15T11:21:37.363Z,43.00
2018-07-15T11:24:05.545Z,42.60
2018-07-15T11:26:33.738Z,42.70
2018-07-15T11:29:01.814Z,43.00
2018-07-15T11:31:30.008Z,43.30
2018-07-15T11:33:58.160Z,44.30
2018-07-15T11:36:26.432Z,44.30
2018-07-15T11:38:54.564Z,43.90
2018-07-15T11:41:22.778Z,43.50
2018-07-15T11:43:51.024Z,42.80
2018-07-15T11:46:19.183Z,42.10
2018-07-15T11:48:47.302Z,42.00
2018-07-15T11:51:15.415Z,42.60
2018-07-15T11:53:43.607Z,42.10
2018-07-15T11:58:39.641Z,41.90
2018-07-15T12:01:07.767Z,42.50
2018-07-15T12:03:35.891Z,42.70
2018-07-15T12:06:04.025Z,43.10
2018-07-15T12:08:32.189Z,43.70
2018-07-15T12:11:00.348Z,44.20
2018-07-15T12:13:28.531Z,44.10
2018-07-15T12:15:56.662Z,43.60
2018-07-15T12:18:24.756Z,44.30
2018-07-15T12:20:52.913Z,44.10
2018-07-15T12:23:21.134Z,44.60
2018-07-15T12:25:49.222Z,42.60
2018-07-15T12:28:17.388Z,42.20
2018-07-15T12:30:45.509Z,43.10
2018-07-15T12:33:13.749Z,42.80
2018-07-15T12:35:41.872Z,42.60
2018-07-15T12:38:10.012Z,42.80
2018-07-15T12:40:38.099Z,42.60
2018-07-15T12:43:06.230Z,42.30
2018-07-15T12:45:34.399Z,40.80
2018-07-15T12:48:02.579Z,41.60
2018-07-15T12:50:30.626Z,41.20
2018-07-15T12:52:58.762Z,40.60
2018-07-15T12:55:26.873Z,41.20
2018-07-15T12:57:55.011Z,41.20
2018-07-15T13:00:23.097Z,41.70
2018-07-15T13:02:51.173Z,42.30
2018-07-15T13:05:19.276Z,42.80
2018-07-15T13:07:47.408Z,43.30
2018-07-15T13:10:15.506Z,43.20
2018-07-15T13:12:43.726Z,43.50
2018-07-15T13:15:11.769Z,42.90
2018-07-15T13:17:39.842Z,42.30
2018-07-15T13:20:08.087Z,42.80
2018-07-15T13:22:36.229Z,43.00
2018-07-15T13:25:04.377Z,43.20
2018-07-15T13:27:32.469Z,42.20
2018-07-15T13:30:00.581Z,42.10
2018-07-15T13:32:28.822Z,41.30
2018-07-15T13:34:56.942Z,40.90
2018-07-15T13:37:25.058Z,40.80
2018-07-15T13:39:53.196Z,40.80
2018-07-15T13:42:21.322Z,40.20
2018-07-15T13:44:49.460Z,40.50
2018-07-15T13:47:17.725Z,39.30
2018-07-15T13:49:45.840Z,39.40
2018-07-15T13:52:13.956Z,40.50
2018-07-15T13:54:42.077Z,40.60
2018-07-15T13:57:10.215Z,40.70
2018-07-15T13:59:38.314Z,40.60
2018-07-15T14:02:06.472Z,41.00
2018-07-15T14:04:34.627Z,40.60
2018-07-15T14:07:02.795Z,41.10
2018-07-15T14:09:30.889Z,41.00
2018-07-15T14:16:54.869Z,41.80
2018-07-15T14:19:22.995Z,42.10
2018-07-15T14:24:19.100Z,42.20
2018-07-15T14:26:47.250Z,41.70
2018-07-15T14:29:15.397Z,41.80
2018-07-15T14:31:43.790Z,40.90
2018-07-15T14:34:11.911Z,40.70
2018-07-15T14:36:40.065Z,41.30
2018-07-15T14:39:08.200Z,40.90
2018-07-15T14:41:36.303Z,41.00
2018-07-15T14:44:04.398Z,40.90
2018-07-15T14:46:32.643Z,40.70
2018-07-15T14:49:00.693Z,40.90
2018-07-15T14:51:28.824Z,39.90
2018-07-15T14:53:56.929Z,39.80
2018-07-15T14:56:25.211Z,40.10
2018-07-15T14:58:53.330Z,40.20
2018-07-15T15:01:21.538Z,40.30
2018-07-15T15:03:49.667Z,40.10
2018-07-15T15:06:17.792Z,40.30
2018-07-15T15:08:46.161Z,40.10
2018-07-15T15:11:14.246Z,40.60
2018-07-15T15:13:42.363Z,40.50
2018-07-15T15:16:10.539Z,40.30
2018-07-15T15:18:38.719Z,40.40
2018-07-15T15:21:06.847Z,40.80
2018-07-15T15:23:34.980Z,40.90
2018-07-15T15:26:03.051Z,41.30
2018-07-15T15:28:31.147Z,41.20
2018-07-15T15:30:59.274Z,41.10
2018-07-15T15:33:27.416Z,41.40
2018-07-15T15:35:55.533Z,41.40
2018-07-15T15:38:23.658Z,41.30
2018-07-15T15:40:51.784Z,40.70
2018-07-15T15:43:19.885Z,41.00
2018-07-15T15:45:47.979Z,41.00
2018-07-15T15:48:16.128Z,41.40
2018-07-15T15:50:44.298Z,41.70
2018-07-15T15:53:12.385Z,41.30
2018-07-15T15:55:40.502Z,41.10
2018-07-15T15:58:08.670Z,41.50
2018-07-15T16:00:36.706Z,41.70
2018-07-15T16:03:05.107Z,40.50
2018-07-15T16:05:33.243Z,40.60
2018-07-15T16:08:01.390Z,40.70
2018-07-15T16:10:29.591Z,41.00
2018-07-15T16:12:57.861Z,41.40
2018-07-15T16:15:25.996Z,42.10
2018-07-15T16:17:54.097Z,41.80
2018-07-15T16:20:22.242Z,41.60
2018-07-15T16:22:50.533Z,41.60
2018-07-15T16:27:46.632Z,41.70
2018-07-15T16:30:14.735Z,41.50
2018-07-15T16:32:42.832Z,41.50
2018-07-15T16:35:11.002Z,41.50
2018-07-15T16:37:39.079Z,41.50
2018-07-15T16:40:07.207Z,41.80
2018-07-15T16:42:35.311Z,41.80
2018-07-15T16:49:59.403Z,42.70
2018-07-15T16:52:27.474Z,42.50
2018-07-15T16:54:55.625Z,42.20
2018-07-15T16:57:23.746Z,41.80
2018-07-15T16:59:51.794Z,42.10
2018-07-15T17:02:19.895Z,42.10
2018-07-15T17:04:47.982Z,42.10
2018-07-15T17:07:16.111Z,41.90
2018-07-15T17:09:44.257Z,42.30
2018-07-15T17:12:12.400Z,42.20
2018-07-15T17:14:40.524Z,42.40
2018-07-15T17:17:08.629Z,42.50
2018-07-15T17:19:36.699Z,42.40
2018-07-15T17:22:04.788Z,42.20
2018-07-15T17:24:33.099Z,42.60
2018-07-15T17:27:01.213Z,43.50
2018-07-15T17:29:29.312Z,42.90
2018-07-15T17:31:57.436Z,42.90
2018-07-15T17:34:25.667Z,42.80
2018-07-15T17:36:53.801Z,42.70
2018-07-15T17:39:21.950Z,43.00
2018-07-15T17:41:50.211Z,43.10
2018-07-15T17:46:46.372Z,42.80
2018-07-15T17:49:15.376Z,43.20
2018-07-15T17:51:43.595Z,42.40
2018-07-15T17:54:11.876Z,42.70
2018-07-15T17:56:40.051Z,43.10
2018-07-15T17:59:08.148Z,43.00
2018-07-15T18:01:36.222Z,43.30
2018-07-15T18:04:04.453Z,43.50
2018-07-15T18:06:32.643Z,43.60
2018-07-15T18:09:00.776Z,43.60
2018-07-15T18:11:28.882Z,43.20
2018-07-15T18:13:57.032Z,43.20
2018-07-15T18:16:25.186Z,43.60
2018-07-15T18:18:53.335Z,43.70
2018-07-15T18:21:21.477Z,44.10
2018-07-15T18:23:49.586Z,44.50
2018-07-15T18:26:18.097Z,44.50
2018-07-15T18:28:46.232Z,44.70
2018-07-15T18:31:14.412Z,45.40
2018-07-15T18:33:42.548Z,45.50
2018-07-15T18:36:10.648Z,45.80
2018-07-15T18:38:38.798Z,46.00
2018-07-15T18:41:06.948Z,46.10
2018-07-15T18:43:35.493Z,46.50
2018-07-15T18:46:03.665Z,47.10
2018-07-15T18:48:31.774Z,47.50
2018-07-15T18:50:59.971Z,47.40
2018-07-15T18:53:28.150Z,47.80
2018-07-15T18:55:56.334Z,48.00
2018-07-15T18:58:24.447Z,48.30
2018-07-15T19:00:52.603Z,48.60
2018-07-15T19:03:20.757Z,48.70
2018-07-15T19:05:48.949Z,48.90
2018-07-15T19:08:17.094Z,49.40
2018-07-15T19:10:45.224Z,49.60
2018-07-15T19:13:13.382Z,50.00
2018-07-15T19:15:41.470Z,50.50
2018-07-15T19:18:09.614Z,50.70
2018-07-15T19:20:37.815Z,50.90
2018-07-15T19:23:05.993Z,51.20
2018-07-15T19:28:02.096Z,52.00
2018-07-15T19:30:30.173Z,52.30
2018-07-15T19:32:58.313Z,52.60
2018-07-15T19:35:26.463Z,52.60
2018-07-15T19:37:54.666Z,52.80
2018-07-15T19:40:22.799Z,53.10
2018-07-15T19:42:51.277Z,53.20
2018-07-15T19:45:19.454Z,53.60
2018-07-15T19:47:47.667Z,53.80
2018-07-15T19:50:15.790Z,54.30
2018-07-15T19:52:43.911Z,54.70
2018-07-15T19:55:12.108Z,54.70
2018-07-15T19:57:40.210Z,54.80
2018-07-15T20:00:08.385Z,54.80
2018-07-15T20:02:36.543Z,54.80
2018-07-15T20:05:04.721Z,55.00
2018-07-15T20:07:32.915Z,55.20
2018-07-15T20:10:01.182Z,55.40
2018-07-15T20:12:29.710Z,56.20
2018-07-15T20:14:58.026Z,56.40
2018-07-15T20:17:26.126Z,56.40
2018-07-15T20:19:54.286Z,56.90
2018-07-15T20:22:22.470Z,57.20
2018-07-15T20:24:50.650Z,57.40
2018-07-15T20:27:18.862Z,57.60
2018-07-15T20:29:47.043Z,57.90
2018-07-15T20:32:15.219Z,58.20
2018-07-15T20:34:43.354Z,58.50
2018-07-15T20:37:11.474Z,58.60
2018-07-15T20:42:07.614Z,59.20
2018-07-15T20:44:35.832Z,59.30
2018-07-15T20:47:04.050Z,59.70
2018-07-15T20:49:32.154Z,59.60
2018-07-15T20:54:28.198Z,60.40
2018-07-15T20:56:56.441Z,61.30
2018-07-15T20:59:24.529Z,61.30
2018-07-15T21:01:52.604Z,60.90
2018-07-15T21:04:20.710Z,61.20
2018-07-15T21:06:48.902Z,61.80
2018-07-15T21:09:17.082Z,61.90
2018-07-15T21:14:20.290Z,62.70
2018-07-15T21:16:48.374Z,63.70
2018-07-15T21:19:16.625Z,63.50
2018-07-15T21:21:44.650Z,64.20
2018-07-15T21:24:12.764Z,64.50
2018-07-15T21:26:40.825Z,65.00
2018-07-15T21:29:09.013Z,65.30
2018-07-15T21:31:37.153Z,66.00
2018-07-15T21:34:05.426Z,66.30
2018-07-15T21:36:33.539Z,67.10
2018-07-15T21:39:01.713Z,67.00
2018-07-15T21:41:29.829Z,67.60
2018-07-15T21:43:57.958Z,67.90
2018-07-15T21:46:26.115Z,68.50
2018-07-15T21:48:54.295Z,68.80
2018-07-15T21:51:22.477Z,69.30
2018-07-15T21:53:50.636Z,69.30
2018-07-15T21:56:18.772Z,69.30
2018-07-15T21:58:46.917Z,69.80
2018-07-15T22:01:15.015Z,69.50
2018-07-15T22:03:43.128Z,69.80
2018-07-15T22:06:22.791Z,70.30
2018-07-15T22:09:02.621Z,70.90
2018-07-15T22:11:30.794Z,71.50
2018-07-15T22:13:59.007Z,71.60
2018-07-15T22:16:27.141Z,72.00
2018-07-15T22:18:55.277Z,72.70
2018-07-15T22:21:23.412Z,73.00
2018-07-15T22:23:51.640Z,73.40
2018-07-15T22:26:19.733Z,73.90
2018-07-15T22:28:47.866Z,73.90
2018-07-15T22:31:16.082Z,74.40
2018-07-15T22:33:44.111Z,74.70
2018-07-15T22:36:12.246Z,74.90
2018-07-15T22:38:40.371Z,75.50
2018-07-15T22:41:08.479Z,76.00
2018-07-15T22:43:36.586Z,76.00
2018-07-15T22:46:04.713Z,76.10
2018-07-15T22:48:32.828Z,76.00
2018-07-15T22:51:00.936Z,76.30
2018-07-15T22:53:29.075Z,76.60
2018-07-15T22:55:57.212Z,76.70
2018-07-15T22:58:25.376Z,77.00
2018-07-15T23:00:53.578Z,77.30
2018-07-15T23:03:21.696Z,77.90
2018-07-15T23:06:01.438Z,78.20
2018-07-15T23:08:30.775Z,78.80
2018-07-15T23:10:58.952Z,79.40
2018-07-15T23:13:27.081Z,80.00
2018-07-15T23:15:55.226Z,80.30
2018-07-15T23:18:23.339Z,80.70
2018-07-15T23:20:51.949Z,81.00
2018-07-15T23:23:20.162Z,81.30
2018-07-15T23:25:48.271Z,81.30
2018-07-15T23:28:17.187Z,81.80
2018-07-15T23:30:45.731Z,82.20
2018-07-15T23:35:41.874Z,84.60
2018-07-15T23:38:09.974Z,84.00
2018-07-15T23:40:38.101Z,84.40
2018-07-15T23:43:06.249Z,84.70
2018-07-15T23:45:35.225Z,84.90
2018-07-15T23:48:03.360Z,85.30
2018-07-15T23:50:31.430Z,85.50
2018-07-15T23:52:59.540Z,86.40
2018-07-15T23:55:27.613Z,86.50
2018-07-15T23:57:55.892Z,86.30
